Time,TemperatureF,DewpointF,PressureIn,WindDirection,WindDirectionDegrees,WindSpeedMPH,WindSpeedGustMPH,Humidity,HourlyPrecipIn,Conditions,Clouds,dailyrainin,SolarRadiationWatts/m^2,SoftwareType,DateUTC
2013-01-18 00:12:00,15.0,11.0,-100.00,NNE,20,0.0,6.0,82,0.00,,,0.00,0.000000,,2013-01-18 07:12:00,
2013-01-18 00:22:00,15.0,11.0,-100.00,NNE,20,0.0,6.0,82,0.00,,,0.00,0.000000,,2013-01-18 07:22:00,
2013-01-18 00:32:00,15.0,11.0,-100.00,NNE,20,0.0,6.0,82,0.00,,,0.00,0.000000,,2013-01-18 07:32:00,
2013-01-18 00:42:00,15.0,11.0,-100.00,NNE,20,0.0,6.0,82,0.00,,,0.00,0.000000,,2013-01-18 07:42:00,
2013-01-18 01:12:00,15.0,11.0,-100.00,NE,53,4.0,5.0,84,0.00,,,0.00,0.000000,,2013-01-18 08:12:00,
2013-01-18 01:22:00,15.0,11.0,-100.00,NE,53,4.0,5.0,84,0.00,,,0.00,0.000000,,2013-01-18 08:22:00,
2013-01-18 01:32:00,15.0,11.0,-100.00,NE,53,4.0,5.0,84,0.00,,,0.00,0.000000,,2013-01-18 08:32:00,
2013-01-18 02:12:00,14.0,11.0,-100.00,SSW,209,0.0,5.0,86,0.00,,,0.00,0.000000,,2013-01-18 09:12:00,
2013-01-18 02:22:00,14.0,11.0,-100.00,SSW,209,0.0,5.0,86,0.00,,,0.00,0.000000,,2013-01-18 09:22:00,
2013-01-18 02:32:00,14.0,11.0,-100.00,SSW,209,0.0,5.0,86,0.00,,,0.00,0.000000,,2013-01-18 09:32:00,
2013-01-18 02:42:00,14.0,11.0,-100.00,SSW,209,0.0,5.0,86,0.00,,,0.00,0.000000,,2013-01-18 09:42:00,
2013-01-18 03:12:00,14.0,10.0,-100.00,SW,227,0.0,5.0,83,0.00,,,0.00,0.000000,,2013-01-18 10:12:00,
2013-01-18 03:22:00,14.0,10.0,-100.00,SW,227,0.0,5.0,83,0.00,,,0.00,0.000000,,2013-01-18 10:22:00,
2013-01-18 03:32:00,14.0,10.0,-100.00,SW,227,0.0,5.0,83,0.00,,,0.00,0.000000,,2013-01-18 10:32:00,
2013-01-18 04:12:00,13.0,10.0,-100.00,SW,217,3.0,5.0,86,0.00,,,0.00,0.000000,,2013-01-18 11:12:00,
2013-01-18 04:22:00,13.0,10.0,-100.00,SW,217,3.0,5.0,86,0.00,,,0.00,0.000000,,2013-01-18 11:22:00,
2013-01-18 04:32:00,13.0,10.0,-100.00,SW,217,3.0,5.0,86,0.00,,,0.00,0.000000,,2013-01-18 11:32:00,
2013-01-18 04:42:00,13.0,10.0,-100.00,SW,217,3.0,5.0,86,0.00,,,0.00,0.000000,,2013-01-18 11:42:00,
2013-01-18 05:12:00,11.0,9.0,-100.00,SE,133,0.0,6.0,93,0.00,,,0.00,0.000000,,2013-01-18 12:12:00,
2013-01-18 05:22:00,11.0,9.0,-100.00,SE,133,0.0,6.0,93,0.00,,,0.00,0.000000,,2013-01-18 12:22:00,
2013-01-18 05:32:00,11.0,9.0,-100.00,SE,133,0.0,6.0,93,0.00,,,0.00,0.000000,,2013-01-18 12:32:00,
2013-01-18 05:42:00,11.0,9.0,-100.00,SE,133,0.0,6.0,93,0.00,,,0.00,0.000000,,2013-01-18 12:42:00,
2013-01-18 06:12:00,11.0,10.0,-100.00,North,10,0.0,4.0,95,0.00,,,0.00,0.000000,,2013-01-18 13:12:00,
2013-01-18 06:22:00,11.0,10.0,-100.00,North,10,0.0,4.0,95,0.00,,,0.00,0.000000,,2013-01-18 13:22:00,
2013-01-18 06:33:00,11.0,10.0,-100.00,North,10,0.0,4.0,95,0.00,,,0.00,0.000000,,2013-01-18 13:33:00,
2013-01-18 06:42:00,11.0,10.0,-100.00,North,10,0.0,4.0,95,0.00,,,0.00,0.000000,,2013-01-18 13:42:00,
2013-01-18 07:12:00,11.0,10.0,-100.00,NE,48,3.0,6.0,94,0.00,,,0.00,0.000000,,2013-01-18 14:12:00,
2013-01-18 07:22:00,11.0,10.0,-100.00,NE,48,3.0,6.0,94,0.00,,,0.00,0.000000,,2013-01-18 14:22:00,
2013-01-18 07:33:00,11.0,10.0,-100.00,NE,48,3.0,6.0,94,0.00,,,0.00,0.000000,,2013-01-18 14:33:00,
2013-01-18 07:42:00,11.0,10.0,-100.00,NE,48,3.0,6.0,94,0.00,,,0.00,0.000000,,2013-01-18 14:42:00,
2013-01-18 08:12:00,11.0,9.0,-100.00,SSW,213,4.0,6.0,92,0.00,,,0.00,6.000000,,2013-01-18 15:12:00,
2013-01-18 08:23:00,11.0,9.0,-100.00,SSW,213,4.0,6.0,92,0.00,,,0.00,6.000000,,2013-01-18 15:23:00,
2013-01-18 08:33:00,11.0,9.0,-100.00,SSW,213,4.0,6.0,92,0.00,,,0.00,6.000000,,2013-01-18 15:33:00,
2013-01-18 08:42:00,11.0,9.0,-100.00,SSW,213,4.0,6.0,92,0.00,,,0.00,6.000000,,2013-01-18 15:42:00,
2013-01-18 09:12:00,16.0,9.0,-100.00,SSE,153,0.0,8.0,74,0.00,,,0.00,187.000000,,2013-01-18 16:12:00,
2013-01-18 09:23:00,16.0,9.0,-100.00,SSE,153,0.0,8.0,74,0.00,,,0.00,187.000000,,2013-01-18 16:23:00,
2013-01-18 09:33:00,16.0,9.0,-100.00,SSE,153,0.0,8.0,74,0.00,,,0.00,187.000000,,2013-01-18 16:33:00,
2013-01-18 09:42:00,16.0,9.0,-100.00,SSE,153,0.0,8.0,74,0.00,,,0.00,187.000000,,2013-01-18 16:42:00,
2013-01-18 10:12:00,20.0,9.0,-100.00,ENE,70,0.0,4.0,63,0.00,,,0.00,397.000000,,2013-01-18 17:12:00,
2013-01-18 10:23:00,20.0,9.0,-100.00,ENE,70,0.0,4.0,63,0.00,,,0.00,397.000000,,2013-01-18 17:23:00,
2013-01-18 10:33:00,20.0,9.0,-100.00,ENE,70,0.0,4.0,63,0.00,,,0.00,397.000000,,2013-01-18 17:33:00,
2013-01-18 10:42:00,20.0,9.0,-100.00,ENE,70,0.0,4.0,63,0.00,,,0.00,397.000000,,2013-01-18 17:42:00,
2013-01-18 11:12:00,29.0,14.0,-100.00,South,185,0.0,4.0,52,0.00,,,0.00,563.000000,,2013-01-18 18:12:00,
2013-01-18 11:23:00,29.0,14.0,-100.00,South,185,0.0,4.0,52,0.00,,,0.00,563.000000,,2013-01-18 18:23:00,
2013-01-18 11:43:00,29.0,14.0,-100.00,South,185,0.0,4.0,52,0.00,,,0.00,563.000000,,2013-01-18 18:43:00,
2013-01-18 12:12:00,32.0,14.0,-100.00,West,262,0.0,5.0,47,0.00,,,0.00,680.000000,,2013-01-18 19:12:00,
2013-01-18 12:22:00,32.0,14.0,-100.00,West,262,0.0,5.0,47,0.00,,,0.00,680.000000,,2013-01-18 19:22:00,
2013-01-18 12:33:00,32.0,14.0,-100.00,West,262,0.0,5.0,47,0.00,,,0.00,680.000000,,2013-01-18 19:33:00,
2013-01-18 13:12:00,24.0,11.0,-100.00,WSW,242,6.0,8.0,58,-99.99,,,0.00,723.000000,,2013-01-18 20:12:00,
2013-01-18 13:22:00,24.0,11.0,-100.00,WSW,242,6.0,8.0,58,-99.99,,,0.00,723.000000,,2013-01-18 20:22:00,
2013-01-18 13:33:00,24.0,11.0,-100.00,WSW,242,6.0,8.0,58,-99.99,,,0.00,723.000000,,2013-01-18 20:33:00,
2013-01-18 13:42:00,24.0,11.0,-100.00,WSW,242,6.0,8.0,58,-99.99,,,0.00,723.000000,,2013-01-18 20:42:00,
2013-01-18 14:12:00,29.0,14.0,-100.00,WSW,250,5.0,10.0,52,0.00,,,0.00,689.000000,,2013-01-18 21:12:00,
2013-01-18 14:22:00,29.0,14.0,-100.00,WSW,250,5.0,10.0,52,0.00,,,0.00,689.000000,,2013-01-18 21:22:00,
2013-01-18 14:33:00,29.0,14.0,-100.00,WSW,250,5.0,10.0,52,0.00,,,0.00,689.000000,,2013-01-18 21:33:00,
2013-01-18 14:42:00,29.0,14.0,-100.00,WSW,250,5.0,10.0,52,0.00,,,0.00,689.000000,,2013-01-18 21:42:00,
2013-01-18 15:12:00,33.0,14.0,-100.00,West,263,4.0,9.0,45,0.00,,,-99.99,585.000000,,2013-01-18 22:12:00,
2013-01-18 15:22:00,33.0,14.0,-100.00,West,263,4.0,9.0,45,0.00,,,-99.99,585.000000,,2013-01-18 22:22:00,
2013-01-18 15:32:00,33.0,14.0,-100.00,West,263,4.0,9.0,45,0.00,,,-99.99,585.000000,,2013-01-18 22:32:00,
2013-01-18 15:42:00,33.0,14.0,-100.00,West,263,4.0,9.0,45,0.00,,,-99.99,585.000000,,2013-01-18 22:42:00,
2013-01-18 16:12:00,33.0,12.0,-100.00,West,261,2.0,12.0,41,0.00,,,0.00,416.000000,,2013-01-18 23:12:00,
2013-01-18 16:22:00,33.0,12.0,-100.00,West,261,2.0,12.0,41,0.00,,,0.00,416.000000,,2013-01-18 23:22:00,
2013-01-18 16:32:00,33.0,12.0,-100.00,West,261,2.0,12.0,41,0.00,,,0.00,416.000000,,2013-01-18 23:32:00,
2013-01-18 16:42:00,33.0,12.0,-100.00,West,261,2.0,12.0,41,0.00,,,0.00,416.000000,,2013-01-18 23:42:00,
2013-01-18 17:12:00,29.0,11.0,-100.00,WNW,303,7.0,12.0,47,0.00,,,0.00,204.000000,,2013-01-19 00:12:00,
2013-01-18 17:22:00,29.0,11.0,-100.00,WNW,303,7.0,12.0,47,0.00,,,0.00,204.000000,,2013-01-19 00:22:00,
2013-01-18 17:32:00,29.0,11.0,-100.00,WNW,303,7.0,12.0,47,0.00,,,0.00,204.000000,,2013-01-19 00:32:00,
2013-01-18 17:42:00,29.0,11.0,-100.00,WNW,303,7.0,12.0,47,0.00,,,0.00,204.000000,,2013-01-19 00:42:00,
2013-01-18 18:12:00,26.0,11.0,-100.00,WNW,300,8.0,14.0,53,0.00,,,0.00,17.000000,,2013-01-19 01:12:00,
2013-01-18 18:22:00,26.0,11.0,-100.00,WNW,300,8.0,14.0,53,0.00,,,0.00,17.000000,,2013-01-19 01:22:00,
2013-01-18 18:32:00,26.0,11.0,-100.00,WNW,300,8.0,14.0,53,0.00,,,0.00,17.000000,,2013-01-19 01:32:00,
2013-01-18 18:42:00,26.0,11.0,-100.00,WNW,300,8.0,14.0,53,0.00,,,0.00,17.000000,,2013-01-19 01:42:00,
2013-01-18 19:12:00,24.0,11.0,-100.00,West,262,7.0,10.0,58,0.00,,,-99.99,0.000000,,2013-01-19 02:12:00,
2013-01-18 19:22:00,24.0,11.0,-100.00,West,262,7.0,10.0,58,0.00,,,-99.99,0.000000,,2013-01-19 02:22:00,
2013-01-18 19:32:00,24.0,11.0,-100.00,West,262,7.0,10.0,58,0.00,,,-99.99,0.000000,,2013-01-19 02:32:00,
2013-01-18 19:42:00,24.0,11.0,-100.00,West,262,7.0,10.0,58,0.00,,,-99.99,0.000000,,2013-01-19 02:42:00,
2013-01-18 20:12:00,23.0,12.0,-100.00,SW,232,6.0,11.0,61,0.00,,,0.00,0.000000,,2013-01-19 03:12:00,
2013-01-18 20:22:00,23.0,12.0,-100.00,SW,232,6.0,11.0,61,0.00,,,0.00,0.000000,,2013-01-19 03:22:00,
2013-01-18 20:32:00,23.0,12.0,-100.00,SW,232,6.0,11.0,61,0.00,,,0.00,0.000000,,2013-01-19 03:32:00,
2013-01-18 20:42:00,23.0,12.0,-100.00,SW,232,6.0,11.0,61,0.00,,,0.00,0.000000,,2013-01-19 03:42:00,
2013-01-18 21:12:00,21.0,11.0,-100.00,SW,224,7.0,10.0,65,0.00,,,0.00,0.000000,,2013-01-19 04:12:00,
2013-01-18 21:22:00,21.0,11.0,-100.00,SW,224,7.0,10.0,65,0.00,,,0.00,0.000000,,2013-01-19 04:22:00,
2013-01-18 21:32:00,21.0,11.0,-100.00,SW,224,7.0,10.0,65,0.00,,,0.00,0.000000,,2013-01-19 04:32:00,
2013-01-18 21:42:00,21.0,11.0,-100.00,SW,224,7.0,10.0,65,0.00,,,0.00,0.000000,,2013-01-19 04:42:00,
2013-01-18 22:12:00,19.0,10.0,-100.00,SW,235,7.0,10.0,68,-99.99,,,0.00,0.000000,,2013-01-19 05:12:00,
2013-01-18 22:22:00,19.0,10.0,-100.00,SW,235,7.0,10.0,68,-99.99,,,0.00,0.000000,,2013-01-19 05:22:00,
2013-01-18 22:32:00,19.0,10.0,-100.00,SW,235,7.0,10.0,68,-99.99,,,0.00,0.000000,,2013-01-19 05:32:00,
2013-01-18 23:12:00,18.0,11.0,-100.00,SW,230,6.0,10.0,73,-99.99,,,0.00,0.000000,,2013-01-19 06:12:00,
2013-01-18 23:22:00,18.0,11.0,-100.00,SW,230,6.0,10.0,73,-99.99,,,0.00,0.000000,,2013-01-19 06:22:00,
2013-01-18 23:32:00,18.0,11.0,-100.00,SW,230,6.0,10.0,73,-99.99,,,0.00,0.000000,,2013-01-19 06:32:00,
2013-01-18 23:42:00,18.0,11.0,-100.00,SW,230,6.0,10.0,73,-99.99,,,0.00,0.000000,,2013-01-19 06:42:00,